Mendham, NJ (07945)

10:31 AM EST on January 29, 2015 (GMT -0500)
Combs Hollow | Change Station
CLOSE
Current Station
Personal Weather Station
Location: Mendham, NJ
Elevation: 896 ft
Nearby Weather Stations

Elev 896 ft 40.82 °N, 74.60 °W | Updated 30 seconds ago

Mostly Cloudy
Mostly Cloudy
26.2 °F
Feels Like 26 °F
N
0.0
Wind Variable Wind from SSW
Gusts 0.0 mph

Today
High -- | Low -- °F
--% Chance of Precip.
Yesterday
High -- | Low -- °F
Precip. -- in
7:11 AM 5:11 PM
Waxing Gibbous, 75% visible
Pressure 30.32 in
Visibility 10.0 miles
Clouds Mostly Cloudy 15000 ft
Windchill 26 °F
Dew Point 3 °F
Humidity 36%
Rainfall 0.00 in
Snow Depth Not available.
UV 1 out of 12
Pollen .10 out of 12
Air Quality Not available.
Flu Activity Not available.
METAR KMMU 291445Z 09004KT 10SM BKN150 M06/M15 A3032

More Conditions Fewer Conditions

Pressure 30.32 in
Visibility 10.0 miles
Clouds Mostly Cloudy 15000 ft
Windchill 26 °F
Dew Point 3 °F
Humidity 36%
Rainfall 0.00 in
Snow Depth Not available.
UV 1 out of 12
Pollen .10 out of 12
Air Quality Not available.
Flu Activity Not available.
METAR KMMU 291445Z 09004KT 10SM BKN150 M06/M15 A3032

More Conditions Fewer Conditions

10-Day Weather Forecast

Almanac

Astronomy

Jan. 29, 2015 Rise Set
Actual Time
Civil Twilight
Nautical Twilight
Astronomical Twilight
Moon
Length of Visible Light
Length of Day
Tomorrow will be .
, % of the Moon is Illuminated

Today's Extremes

State Highs State Lows

Community

WunderPhotos

Upload Photos

1,791,456 photos uploaded!

WunderBlogs® & News

Nearby

Air Quality

  Air Quality AQ Index Pollutant
Not available.

Snow Depth

Station Depth Elevation

Earthquake Activity

City Distance Mag. Time & Date
Minimum magnitude displayed is 2.5.

Coastal Water Temperatures

Place Temperature

Nearby Weather Stations